Time;durP1;ratioP1;P1;durP2;ratioP2;P2;SDS_P1;SDS_P2;PMS_P1;PMS_P2;Temp;Humidity;BMP_temperature;BMP_pressure;BME280_temperature;BME280_humidity;BME280_pressure;Samples;Min_cycle;Max_cycle;Signal;HPM_P1;HPM_P2
2021/03/09 00:01:47;;;;;;;0.20;0.10;;;;;;;-0.59;100.00;100641.41;5051818;28;20455;-55
2021/03/09 00:04:13;;;;;;;0.20;0.10;;;;;;;-0.57;100.00;100631.88;5038964;28;20466;-56
2021/03/09 00:06:39;;;;;;;0.20;0.10;;;;;;;-0.58;100.00;100642.28;5042575;28;20875;-56
2021/03/09 00:09:05;;;;;;;0.20;0.20;;;;;;;-0.55;100.00;100643.22;5045494;28;20451;-55
2021/03/09 00:11:32;;;;;;;0.20;0.10;;;;;;;-0.54;100.00;100641.53;5039637;28;21003;-55
2021/03/09 00:13:58;;;;;;;0.20;0.10;;;;;;;-0.52;100.00;100638.09;5038347;28;20451;-56
2021/03/09 00:16:24;;;;;;;0.20;0.10;;;;;;;-0.50;100.00;100644.22;5044068;28;21039;-55
2021/03/09 00:18:51;;;;;;;2.10;2.00;;;;;;;-0.45;100.00;100639.09;5045018;28;20541;-55
2021/03/09 00:21:17;;;;;;;0.20;0.10;;;;;;;-0.42;100.00;100646.97;5040187;28;20466;-56
2021/03/09 00:23:43;;;;;;;0.20;0.20;;;;;;;-0.43;100.00;100637.38;5038402;28;20498;-55
2021/03/09 00:26:09;;;;;;;0.20;0.10;;;;;;;-0.50;100.00;100640.72;5044037;28;20475;-55
2021/03/09 00:28:35;;;;;;;0.20;0.10;;;;;;;-0.41;100.00;100633.97;5045002;28;20451;-55
2021/03/09 00:31:02;;;;;;;0.20;0.10;;;;;;;-0.16;100.00;100643.19;5039847;28;20489;-55
2021/03/09 00:33:28;;;;;;;0.20;0.10;;;;;;;-0.33;100.00;100639.34;5038406;28;20452;-56
2021/03/09 00:35:54;;;;;;;0.20;0.10;;;;;;;-0.38;100.00;100631.44;5043496;28;20498;-55
2021/03/09 00:38:20;;;;;;;0.20;0.10;;;;;;;-0.29;100.00;100641.16;5046662;28;20455;-53
2021/03/09 00:40:47;;;;;;;0.20;0.10;;;;;;;-0.21;100.00;100637.00;5044056;28;20469;-53
2021/03/09 00:43:13;;;;;;;0.20;0.10;;;;;;;-0.29;100.00;100635.94;5041807;28;20459;-53
2021/03/09 00:45:40;;;;;;;0.20;0.10;;;;;;;-0.14;100.00;100632.75;5046864;28;20459;-53
2021/03/09 00:48:06;;;;;;;0.20;0.10;;;;;;;-0.30;100.00;100636.78;5049133;28;20929;-53
2021/03/09 00:50:32;;;;;;;0.20;0.10;;;;;;;-0.20;100.00;100630.91;5043807;28;20513;-53
2021/03/09 00:52:59;;;;;;;0.20;0.10;;;;;;;-0.13;100.00;100627.59;5041644;28;20447;-53
2021/03/09 00:55:25;;;;;;;0.20;0.10;;;;;;;-0.10;100.00;100627.66;5042740;28;20455;-53
2021/03/09 00:57:55;;;;;;;0.20;0.10;;;;;;;-0.06;100.00;100624.22;5048651;28;20543;-53
2021/03/09 01:00:22;;;;;;;0.20;0.10;;;;;;;0.00;100.00;100618.25;5045178;28;20458;-53
2021/03/09 01:02:48;;;;;;;0.20;0.10;;;;;;;-0.14;100.00;100627.53;5035536;28;20452;-53
2021/03/09 01:05:15;;;;;;;0.20;0.10;;;;;;;-0.16;100.00;100618.78;5035479;28;20848;-53
2021/03/09 01:07:41;;;;;;;0.20;0.10;;;;;;;-0.17;100.00;100610.06;5041218;28;20470;-53
2021/03/09 01:10:08;;;;;;;0.20;0.10;;;;;;;-0.13;100.00;100613.66;5044894;28;20496;-53
2021/03/09 01:12:34;;;;;;;0.20;0.10;;;;;;;-0.12;100.00;100618.91;5048048;28;20547;-53
2021/03/09 01:15:01;;;;;;;0.20;0.10;;;;;;;-0.04;100.00;100616.41;5045044;28;20451;-53
2021/03/09 01:17:27;;;;;;;0.20;0.10;;;;;;;-0.16;100.00;100624.00;5041514;28;20470;-53
2021/03/09 01:19:53;;;;;;;0.20;0.10;;;;;;;-0.31;100.00;100611.53;5044757;28;20794;-53
2021/03/09 01:22:19;;;;;;;0.20;0.13;;;;;;;-0.19;100.00;100617.00;5048016;28;20452;-53
2021/03/09 01:24:45;;;;;;;0.20;0.10;;;;;;;-0.28;100.00;100619.41;5044756;28;21009;-53
2021/03/09 01:27:12;;;;;;;0.20;0.10;;;;;;;-0.34;100.00;100617.56;5041255;28;20471;-53
2021/03/09 01:29:38;;;;;;;0.20;0.10;;;;;;;-0.30;100.00;100615.91;5044437;28;20840;-53
2021/03/09 01:32:06;;;;;;;0.20;0.10;;;;;;;-0.26;100.00;100612.53;5048154;28;20578;-53
2021/03/09 01:34:32;;;;;;;2.30;1.70;;;;;;;-0.36;100.00;100606.22;5043426;28;20956;-53
2021/03/09 01:36:58;;;;;;;0.20;0.10;;;;;;;-0.24;100.00;100608.22;5040932;28;20477;-53
2021/03/09 01:39:24;;;;;;;0.20;0.10;;;;;;;-0.13;100.00;100611.03;5044146;28;20452;-53
2021/03/09 01:41:50;;;;;;;0.20;0.10;;;;;;;-0.14;100.00;100609.25;5047744;28;20505;-53
2021/03/09 01:44:17;;;;;;;0.20;0.10;;;;;;;-0.13;100.00;100604.09;5044342;28;20960;-53
2021/03/09 01:46:46;;;;;;;0.20;0.20;;;;;;;-0.14;100.00;100596.19;5040306;28;20486;-53
2021/03/09 01:49:14;;;;;;;0.20;0.10;;;;;;;-0.15;100.00;100599.66;5043634;28;20451;-53
2021/03/09 01:51:45;;;;;;;0.20;0.10;;;;;;;-0.05;100.00;100598.97;5047309;28;20527;-54
2021/03/09 01:54:13;;;;;;;0.20;0.10;;;;;;;-0.02;100.00;100589.47;5043422;28;20450;-54
2021/03/09 01:56:40;;;;;;;0.20;0.10;;;;;;;0.12;100.00;100584.50;5040393;28;20501;-54
2021/03/09 01:59:07;;;;;;;1.70;1.50;;;;;;;-0.26;100.00;100583.78;5040942;28;20462;-54
2021/03/09 02:01:34;;;;;;;2.00;1.03;;;;;;;-0.14;100.00;100580.50;5047751;28;20497;-54
2021/03/09 02:04:03;;;;;;;0.20;0.10;;;;;;;0.04;100.00;100583.50;5021750;28;20449;-54
2021/03/09 02:06:29;;;;;;;0.20;0.10;;;;;;;-0.05;100.00;100578.09;5027685;28;20466;-54
2021/03/09 02:09:00;;;;;;;0.20;0.10;;;;;;;-0.03;100.00;100579.00;5040653;28;20817;-54
2021/03/09 02:11:41;;;;;;;0.20;0.10;;;;;;;-0.04;100.00;100566.78;5046093;28;20533;-53
2021/03/09 02:14:10;;;;;;;0.20;0.10;;;;;;;-0.14;100.00;100568.34;5047217;28;20442;-54
2021/03/09 02:17:10;;;;;;;0.20;0.10;;;;;;;-0.01;100.00;100572.06;5043431;28;20471;-54
2021/03/09 02:19:39;;;;;;;0.20;0.10;;;;;;;0.04;100.00;100562.59;5028965;28;20479;-54
2021/03/09 02:22:23;;;;;;;0.20;0.10;;;;;;;0.10;100.00;100562.69;5040087;28;20461;-54
2021/03/09 02:25:04;;;;;;;0.20;0.20;;;;;;;0.23;100.00;100561.16;5043410;28;20455;-54
2021/03/09 02:28:30;;;;;;;0.20;0.10;;;;;;;0.25;100.00;100555.09;5045547;28;20495;-54
2021/03/09 02:30:57;;;;;;;0.20;0.10;;;;;;;0.12;100.00;100553.13;5017666;28;20900;-54
2021/03/09 02:33:34;;;;;;;0.20;0.10;;;;;;;0.09;100.00;100552.22;5039932;28;20451;-54
2021/03/09 02:36:13;;;;;;;0.20;0.10;;;;;;;0.16;100.00;100556.72;5044789;28;20550;-54
2021/03/09 02:38:53;;;;;;;0.20;0.10;;;;;;;-0.02;100.00;100558.13;5045449;28;20820;-54
2021/03/09 02:41:21;;;;;;;1.63;1.60;;;;;;;0.03;100.00;100552.13;5045878;28;20447;-53
2021/03/09 02:43:50;;;;;;;0.20;0.10;;;;;;;0.05;100.00;100553.03;5039827;28;20450;-53
2021/03/09 02:46:18;;;;;;;0.20;0.10;;;;;;;0.14;100.00;100548.84;5039900;28;20483;-54
2021/03/09 02:48:46;;;;;;;0.20;0.10;;;;;;;0.21;100.00;100536.75;5046162;28;20455;-54
2021/03/09 02:51:13;;;;;;;0.20;0.10;;;;;;;0.14;100.00;100538.38;5046330;28;20487;-54
2021/03/09 02:53:45;;;;;;;0.60;0.57;;;;;;;0.14;100.00;100524.44;5039782;28;20446;-54
2021/03/09 02:56:13;;;;;;;0.20;0.10;;;;;;;0.23;100.00;100530.69;5036116;28;20530;-54
2021/03/09 02:58:43;;;;;;;0.20;0.10;;;;;;;0.21;100.00;100521.94;5044183;28;20448;-54
2021/03/09 03:01:10;;;;;;;0.20;0.10;;;;;;;0.24;100.00;100528.94;5047879;28;20439;-53
2021/03/09 03:03:41;;;;;;;0.20;0.13;;;;;;;0.28;100.00;100530.78;5043094;28;20483;-54
2021/03/09 03:06:10;;;;;;;0.20;0.10;;;;;;;0.34;100.00;100523.03;5046313;28;20522;-54
2021/03/09 03:08:38;;;;;;;0.20;0.10;;;;;;;0.29;100.00;100528.19;5043656;28;20481;-54
2021/03/09 03:11:05;;;;;;;0.20;0.10;;;;;;;0.20;100.00;100525.41;5038994;28;20906;-54
2021/03/09 03:13:33;;;;;;;0.20;0.10;;;;;;;0.26;100.00;100525.50;5041605;28;20443;-54
2021/03/09 03:16:00;;;;;;;0.27;0.20;;;;;;;0.27;100.00;100514.22;5046418;28;20817;-54
2021/03/09 03:18:29;;;;;;;0.20;0.10;;;;;;;0.33;100.00;100516.03;5043784;28;20458;-54
2021/03/09 03:20:56;;;;;;;0.20;0.10;;;;;;;0.42;100.00;100520.56;5038821;28;20451;-54
2021/03/09 03:23:23;;;;;;;0.20;0.10;;;;;;;0.45;100.00;100515.38;5041039;28;20505;-54
2021/03/09 03:25:52;;;;;;;0.30;0.20;;;;;;;0.45;100.00;100524.09;5046100;28;20462;-54
2021/03/09 03:28:20;;;;;;;0.20;0.10;;;;;;;0.40;100.00;100520.50;5044404;28;20466;-54
2021/03/09 03:30:48;;;;;;;0.30;0.30;;;;;;;0.42;100.00;100510.97;5039013;28;20487;-54
2021/03/09 03:33:14;;;;;;;0.20;0.10;;;;;;;0.57;100.00;100516.44;5040284;28;20513;-54
2021/03/09 03:35:40;;;;;;;0.20;0.10;;;;;;;0.45;100.00;100517.97;5045720;28;20447;-54
2021/03/09 03:38:07;;;;;;;0.20;0.20;;;;;;;0.41;100.00;100514.44;5045194;28;20521;-54
2021/03/09 03:40:33;;;;;;;0.20;0.10;;;;;;;0.41;100.00;100513.53;5038959;28;20595;-54
2021/03/09 03:42:59;;;;;;;0.20;0.10;;;;;;;0.48;100.00;100515.41;5038453;28;20447;-54
2021/03/09 03:45:26;;;;;;;0.20;0.10;;;;;;;0.51;100.00;100507.59;5045659;28;20451;-54
2021/03/09 03:47:57;;;;;;;0.20;0.10;;;;;;;0.44;100.00;100514.50;5045216;28;20478;-54
2021/03/09 03:50:25;;;;;;;0.20;0.10;;;;;;;0.46;100.00;100512.78;5044559;28;20491;-54
2021/03/09 03:53:17;;;;;;;0.20;0.10;;;;;;;0.43;100.00;100501.41;5045641;28;20455;-54
2021/03/09 03:55:52;;;;;;;0.20;0.10;;;;;;;0.47;100.00;100514.53;5032196;28;20440;-54
2021/03/09 03:58:48;;;;;;;0.30;0.20;;;;;;;0.65;100.00;100503.47;5045520;28;20587;-54
2021/03/09 04:01:15;;;;;;;0.30;0.20;;;;;;;0.59;100.00;100509.50;5048991;28;20439;-54
2021/03/09 04:03:42;;;;;;;0.20;0.13;;;;;;;0.51;100.00;100508.47;5041725;28;20451;-54
2021/03/09 04:06:09;;;;;;;0.20;0.10;;;;;;;0.56;100.00;100506.84;5045109;28;20840;-52
2021/03/09 04:08:38;;;;;;;0.20;0.10;;;;;;;0.52;100.00;100512.84;5043121;28;20447;-52
2021/03/09 04:11:08;;;;;;;0.20;0.10;;;;;;;0.54;100.00;100510.25;5038384;28;20491;-52
2021/03/09 04:13:37;;;;;;;0.20;0.10;;;;;;;0.55;100.00;100504.19;5044130;28;20485;-53
2021/03/09 04:16:04;;;;;;;0.20;0.10;;;;;;;0.55;100.00;100501.59;5048847;28;20463;-52
2021/03/09 04:18:32;;;;;;;0.20;0.10;;;;;;;0.48;100.00;100490.13;5048058;28;20454;-52
2021/03/09 04:20:59;;;;;;;0.20;0.10;;;;;;;0.64;100.00;100488.63;5042185;28;20447;-52
2021/03/09 04:23:26;;;;;;;0.20;0.10;;;;;;;0.54;100.00;100492.81;5043261;28;20957;-52
2021/03/09 04:25:54;;;;;;;0.20;0.10;;;;;;;0.54;100.00;100487.59;5048892;28;20451;-52
2021/03/09 04:28:21;;;;;;;0.20;0.10;;;;;;;0.49;100.00;100481.44;5049062;28;20512;-52
2021/03/09 04:30:48;;;;;;;0.20;0.10;;;;;;;0.50;100.00;100485.81;5048556;28;20483;-52
2021/03/09 04:33:15;;;;;;;0.30;0.20;;;;;;;0.58;100.00;100480.69;5035048;28;20452;-53
2021/03/09 04:35:42;;;;;;;0.20;0.10;;;;;;;0.64;100.00;100477.28;5042300;28;20450;-52
2021/03/09 04:38:08;;;;;;;0.20;0.10;;;;;;;0.63;100.00;100483.38;5042122;28;20870;-52
2021/03/09 04:40:35;;;;;;;0.20;0.10;;;;;;;0.66;100.00;100484.28;5048702;28;20454;-53
2021/03/09 04:43:03;;;;;;;0.20;0.10;;;;;;;0.55;100.00;100484.16;5049379;28;20501;-52
2021/03/09 04:45:30;;;;;;;0.20;0.10;;;;;;;0.65;100.00;100495.63;5048252;28;20470;-53
2021/03/09 04:48:00;;;;;;;0.20;0.10;;;;;;;0.57;100.00;100494.63;5048609;28;20479;-52
2021/03/09 04:50:28;;;;;;;0.20;0.10;;;;;;;0.62;100.00;100492.97;5043396;28;21061;-53
2021/03/09 04:52:54;;;;;;;0.30;0.30;;;;;;;0.71;100.00;100490.50;5041817;28;20447;-52
2021/03/09 04:55:24;;;;;;;0.20;0.10;;;;;;;0.68;100.00;100490.41;5043007;28;20526;-52
2021/03/09 04:57:51;;;;;;;0.20;0.10;;;;;;;0.68;100.00;100492.16;5048719;28;20823;-52
2021/03/09 05:00:23;;;;;;;0.20;0.20;;;;;;;0.73;100.00;100488.78;5044681;28;20447;-52
2021/03/09 05:02:50;;;;;;;0.20;0.10;;;;;;;0.75;100.00;100492.28;5035397;28;20444;-52
2021/03/09 05:05:19;;;;;;;0.20;0.10;;;;;;;0.56;100.00;100475.47;5025307;28;20447;-52
2021/03/09 05:07:45;;;;;;;0.20;0.13;;;;;;;0.53;100.00;100485.84;5048656;28;20468;-52
2021/03/09 05:10:13;;;;;;;0.20;0.10;;;;;;;0.58;100.00;100485.94;5045749;28;20540;-52
2021/03/09 05:12:41;;;;;;;0.20;0.10;;;;;;;0.55;100.00;100493.75;5041502;28;20451;-51
2021/03/09 05:15:08;;;;;;;0.20;0.10;;;;;;;0.43;100.00;100489.19;5042963;28;20452;-52
2021/03/09 05:17:35;;;;;;;0.20;0.10;;;;;;;0.51;100.00;100487.56;5048350;28;20467;-52
2021/03/09 05:20:06;;;;;;;0.20;0.10;;;;;;;0.59;100.00;100490.31;5046259;28;20451;-52
2021/03/09 05:22:33;;;;;;;0.20;0.10;;;;;;;0.63;100.00;100486.88;5048185;28;20460;-52
2021/03/09 05:24:59;;;;;;;4.20;2.90;;;;;;;0.75;100.00;100489.66;5046419;28;20872;-52
2021/03/09 05:27:26;;;;;;;0.20;0.10;;;;;;;0.71;100.00;100485.25;5041161;28;20475;-52
2021/03/09 05:29:52;;;;;;;0.20;0.10;;;;;;;0.73;100.00;100483.53;5042228;28;20900;-53
2021/03/09 05:32:19;;;;;;;0.37;0.37;;;;;;;0.70;100.00;100478.28;5048080;28;20452;-53
2021/03/09 05:34:45;;;;;;;0.20;0.10;;;;;;;0.71;100.00;100482.63;5046982;28;20520;-52
2021/03/09 05:37:11;;;;;;;0.20;0.10;;;;;;;0.78;100.00;100486.22;5032810;28;20520;-53
2021/03/09 05:39:38;;;;;;;0.20;0.10;;;;;;;0.78;100.00;100484.47;5047018;28;20454;-53
2021/03/09 05:42:05;;;;;;;0.20;0.10;;;;;;;0.85;100.00;100483.72;5040804;28;20477;-52
2021/03/09 05:44:36;;;;;;;0.20;0.10;;;;;;;0.85;100.00;100486.31;5041444;28;20448;-53
2021/03/09 05:47:03;;;;;;;0.20;0.17;;;;;;;0.91;100.00;100484.63;5028102;28;20491;-52
2021/03/09 05:49:30;;;;;;;0.20;0.10;;;;;;;0.93;100.00;100496.88;5040650;28;21019;-53
2021/03/09 05:51:57;;;;;;;0.20;0.10;;;;;;;0.91;100.00;100490.75;5047093;28;20491;-52
2021/03/09 05:54:24;;;;;;;0.30;0.20;;;;;;;0.98;100.00;100499.59;5043527;28;20570;-53
2021/03/09 05:56:50;;;;;;;0.20;0.10;;;;;;;0.95;100.00;100497.78;5041884;28;20497;-52
2021/03/09 05:59:17;;;;;;;0.20;0.10;;;;;;;0.97;100.00;100495.22;5040706;28;20465;-53
2021/03/09 06:01:43;;;;;;;0.20;0.10;;;;;;;0.97;100.00;100488.22;5046478;28;20447;-52
2021/03/09 06:04:10;;;;;;;0.20;0.10;;;;;;;0.98;100.00;100497.84;5021337;28;20515;-53
2021/03/09 06:06:36;;;;;;;0.20;0.10;;;;;;;0.97;100.00;100492.59;5041275;28;20470;-52
2021/03/09 06:09:35;;;;;;;0.20;0.20;;;;;;;0.98;100.00;100486.50;5040783;28;20448;-53
2021/03/09 06:12:20;;;;;;;0.20;0.10;;;;;;;1.04;100.00;100487.44;5041067;28;20545;-52
2021/03/09 06:14:55;;;;;;;0.70;0.63;;;;;;;1.05;100.00;100483.97;5030797;28;20454;-53
2021/03/09 06:17:39;;;;;;;0.20;0.10;;;;;;;1.02;100.00;100485.66;5040264;28;20500;-53
2021/03/09 06:20:17;;;;;;;0.20;0.10;;;;;;;1.04;100.00;100481.31;5040343;28;21005;-53
2021/03/09 06:22:48;;;;;;;0.20;0.10;;;;;;;1.06;100.00;100480.47;5028894;28;20457;-52
2021/03/09 06:25:20;;;;;;;0.20;0.10;;;;;;;1.07;100.00;100486.59;5039876;28;20440;-52
2021/03/09 06:27:46;;;;;;;0.20;0.13;;;;;;;1.16;100.00;100481.50;5044613;28;20474;-53
2021/03/09 06:30:27;;;;;;;0.20;0.20;;;;;;;1.27;100.00;100482.50;5046961;28;20450;-52
2021/03/09 06:32:54;;;;;;;0.20;0.10;;;;;;;1.19;100.00;100486.75;5036003;28;20445;-53
2021/03/09 06:35:37;;;;;;;0.20;0.10;;;;;;;1.19;100.00;100487.63;5044410;28;20452;-53
2021/03/09 06:38:25;;;;;;;0.20;0.10;;;;;;;1.19;100.00;100486.75;5046890;28;20446;-53
2021/03/09 06:41:14;;;;;;;0.20;0.10;;;;;;;1.20;100.00;100488.50;5043634;28;20442;-53
2021/03/09 06:43:46;;;;;;;0.20;0.10;;;;;;;1.17;100.00;100484.13;5046927;28;20454;-53
2021/03/09 06:46:18;;;;;;;0.20;0.10;;;;;;;1.16;100.00;100490.22;5046105;28;20493;-53
2021/03/09 06:48:47;;;;;;;0.60;0.60;;;;;;;1.23;100.00;100488.53;5040473;28;20455;-53
2021/03/09 06:51:28;;;;;;;0.20;0.10;;;;;;;1.30;100.00;100495.63;5039194;28;21030;-52
2021/03/09 06:54:13;;;;;;;0.20;0.10;;;;;;;1.32;100.00;100496.50;5042472;28;20998;-53
2021/03/09 06:56:41;;;;;;;0.20;0.10;;;;;;;1.28;100.00;100493.84;5038524;28;20479;-53
2021/03/09 06:59:23;;;;;;;0.20;0.10;;;;;;;1.38;100.00;100504.47;5039592;28;20954;-53
2021/03/09 07:02:13;;;;;;;0.20;0.10;;;;;;;1.39;100.00;100497.47;5030112;28;20854;-53
2021/03/09 07:05:00;;;;;;;0.20;0.10;;;;;;;1.37;100.00;100499.19;5039854;28;20451;-53
2021/03/09 07:07:39;;;;;;;0.20;0.10;;;;;;;1.47;100.00;100501.94;5039631;28;20881;-53
2021/03/09 07:10:12;;;;;;;0.20;0.10;;;;;;;1.55;100.00;100512.50;5043052;28;20814;-53
2021/03/09 07:12:40;;;;;;;0.20;0.10;;;;;;;1.59;100.00;100510.78;5045710;28;20452;-53
2021/03/09 07:15:13;;;;;;;0.40;0.40;;;;;;;1.63;100.00;100512.56;5043305;28;20967;-53
2021/03/09 07:17:40;;;;;;;0.20;0.10;;;;;;;1.73;100.00;100511.81;5039390;28;20471;-53
2021/03/09 07:20:09;;;;;;;0.20;0.10;;;;;;;1.74;100.00;100524.06;5040808;28;20546;-53
2021/03/09 07:22:52;;;;;;;0.20;0.20;;;;;;;1.91;100.00;100521.59;5039699;28;20446;-53
2021/03/09 07:25:18;;;;;;;0.20;0.20;;;;;;;1.86;100.00;100521.56;5039170;28;20451;-53
2021/03/09 07:27:52;;;;;;;0.20;0.20;;;;;;;1.93;100.00;100526.03;5044946;28;20479;-53
2021/03/09 07:30:21;;;;;;;0.20;0.10;;;;;;;2.04;100.00;100520.88;5045963;28;20504;-53
2021/03/09 07:32:49;;;;;;;0.20;0.10;;;;;;;2.02;100.00;100520.84;5035975;28;20603;-53
2021/03/09 07:35:16;;;;;;;0.30;0.23;;;;;;;2.06;100.00;100522.66;5041934;28;20464;-53
2021/03/09 07:37:43;;;;;;;0.20;0.10;;;;;;;2.20;100.00;100529.78;5042119;28;20883;-53
2021/03/09 07:40:14;;;;;;;0.20;0.10;;;;;;;2.26;100.00;100519.34;5038712;28;20501;-53
2021/03/09 07:42:41;;;;;;;0.30;0.20;;;;;;;2.27;100.00;100519.34;5041425;28;20452;-53
2021/03/09 07:45:15;;;;;;;0.20;0.10;;;;;;;2.38;100.00;100524.69;5045922;28;20451;-53
2021/03/09 07:47:51;;;;;;;0.20;0.10;;;;;;;2.35;100.00;100522.03;5044103;28;20531;-53
2021/03/09 07:50:19;;;;;;;0.20;0.10;;;;;;;2.43;100.00;100525.59;5025811;28;20442;-53
2021/03/09 07:53:02;;;;;;;0.20;0.10;;;;;;;2.56;99.98;100527.44;5037337;28;20483;-53
2021/03/09 07:55:29;;;;;;;0.20;0.20;;;;;;;2.58;99.86;100528.31;5039065;28;20509;-53
2021/03/09 07:58:23;;;;;;;2.83;0.97;;;;;;;2.59;100.00;100531.81;5045340;28;20543;-53
2021/03/09 08:01:06;;;;;;;0.20;0.10;;;;;;;2.63;100.00;100531.88;5045807;28;20440;-53
2021/03/09 08:03:32;;;;;;;0.20;0.10;;;;;;;2.80;100.00;100525.88;5023720;28;20439;-53
2021/03/09 08:06:00;;;;;;;1.10;1.10;;;;;;;2.87;99.26;100525.91;5030479;28;20463;-53
2021/03/09 08:08:42;;;;;;;0.30;0.30;;;;;;;3.24;98.29;100526.13;5042625;28;21012;-53
2021/03/09 08:11:13;;;;;;;0.20;0.20;;;;;;;3.35;97.67;100527.06;5045376;28;20960;-53
2021/03/09 08:13:39;;;;;;;0.20;0.10;;;;;;;3.26;98.20;100530.50;5044435;28;20450;-53
2021/03/09 08:16:21;;;;;;;0.20;0.10;;;;;;;3.36;97.75;100534.06;5038455;28;21003;-53
2021/03/09 08:18:49;;;;;;;0.20;0.20;;;;;;;3.81;96.24;100530.72;5038223;28;20833;-53
2021/03/09 08:21:16;;;;;;;0.70;0.70;;;;;;;3.65;96.37;100535.91;5043746;28;20443;-54
2021/03/09 08:23:42;;;;;;;0.20;0.10;;;;;;;3.45;97.25;100527.97;5044881;28;20446;-53
2021/03/09 08:26:14;;;;;;;0.50;0.50;;;;;;;3.89;95.95;100529.88;5040463;28;20467;-53
2021/03/09 08:28:52;;;;;;;0.30;0.13;;;;;;;3.62;96.33;100533.28;5038474;28;20940;-53
2021/03/09 08:31:18;;;;;;;0.20;0.10;;;;;;;3.67;96.86;100529.78;5041201;28;21031;-54
2021/03/09 08:33:49;;;;;;;0.20;0.10;;;;;;;3.60;96.70;100528.03;5032309;28;20460;-54
2021/03/09 08:36:24;;;;;;;0.20;0.10;;;;;;;4.07;96.01;100528.13;5042767;28;20474;-54
2021/03/09 08:39:08;;;;;;;0.30;0.30;;;;;;;4.14;95.01;100532.53;5032692;28;20464;-53
2021/03/09 08:41:34;;;;;;;0.20;0.20;;;;;;;4.31;94.63;100532.56;5044873;28;20439;-54
2021/03/09 08:47:11;;;;;;;0.20;0.10;;;;;;;4.66;92.75;100527.31;5037898;28;20984;-53
2021/03/09 08:49:38;;;;;;;0.30;0.20;;;;;;;4.64;92.86;100523.75;5038487;28;20448;-54
2021/03/09 08:52:06;;;;;;;0.30;0.30;;;;;;;4.28;93.92;100524.66;5043596;28;20523;-54
2021/03/09 08:54:50;;;;;;;0.37;0.37;;;;;;;4.20;94.67;100525.53;5040862;28;20456;-54
2021/03/09 08:57:17;;;;;;;0.83;0.83;;;;;;;4.40;94.45;100524.69;5042456;28;20481;-53
2021/03/09 08:59:50;;;;;;;0.30;0.20;;;;;;;4.43;94.32;100519.41;5040291;28;20520;-54
2021/03/09 09:02:19;;;;;;;0.20;0.10;;;;;;;4.41;93.96;100525.56;5054048;28;20493;-53
2021/03/09 09:04:56;;;;;;;0.30;0.20;;;;;;;4.63;92.74;100519.38;5041533;28;20443;-53
2021/03/09 09:07:36;;;;;;;0.30;0.20;;;;;;;4.78;93.09;100520.25;5041650;28;20476;-54
2021/03/09 09:10:22;;;;;;;0.20;0.17;;;;;;;4.63;93.41;100515.88;5045902;28;20454;-53
2021/03/09 09:12:57;;;;;;;0.60;0.60;;;;;;;4.62;93.31;100520.25;5048514;28;20479;-53
2021/03/09 09:15:23;;;;;;;2.00;2.00;;;;;;;4.60;93.39;100514.13;5048115;28;20450;-54
2021/03/09 09:17:54;;;;;;;0.30;0.20;;;;;;;4.86;93.20;100508.81;5041687;28;20475;-53
2021/03/09 09:20:34;;;;;;;0.30;0.20;;;;;;;4.96;93.37;100509.69;5041035;28;20505;-54
2021/03/09 09:23:12;;;;;;;0.20;0.10;;;;;;;5.09;92.24;100510.53;5032865;28;20458;-54
2021/03/09 09:25:44;;;;;;;0.43;0.37;;;;;;;4.99;92.37;100507.94;5039738;28;20512;-54
2021/03/09 09:28:25;;;;;;;0.20;0.10;;;;;;;5.33;92.18;100511.31;5043584;28;20658;-54
2021/03/09 09:30:53;;;;;;;0.20;0.10;;;;;;;5.33;91.63;100506.03;5048036;28;20479;-53
2021/03/09 09:33:29;;;;;;;0.20;0.20;;;;;;;5.55;91.47;100505.97;5033121;28;20825;-54
2021/03/09 09:35:57;;;;;;;0.30;0.10;;;;;;;5.47;91.16;100499.84;5042587;28;20447;-54
2021/03/09 09:38:23;;;;;;;0.30;0.20;;;;;;;5.67;90.83;100497.13;5041376;28;20463;-54
2021/03/09 09:40:53;;;;;;;0.30;0.10;;;;;;;5.84;89.82;100497.91;5046072;28;20873;-54
2021/03/09 09:43:22;;;;;;;0.30;0.20;;;;;;;5.82;90.50;100503.19;5047668;28;20871;-53
2021/03/09 09:46:00;;;;;;;0.30;0.20;;;;;;;6.07;89.61;100496.03;5043433;28;20483;-53
2021/03/09 09:48:29;;;;;;;0.37;0.30;;;;;;;6.06;88.55;100496.03;5040994;28;20466;-53
2021/03/09 09:51:01;;;;;;;0.30;0.30;;;;;;;6.14;88.99;100483.66;5043442;28;20552;-54
2021/03/09 09:53:33;;;;;;;0.30;0.20;;;;;;;6.27;88.36;100487.06;5047563;28;20448;-54
2021/03/09 09:56:02;;;;;;;0.77;0.77;;;;;;;6.44;87.63;100483.44;5034907;28;20467;-54
2021/03/09 09:58:49;;;;;;;0.30;0.20;;;;;;;6.38;88.59;100488.75;5046734;28;20478;-54
2021/03/09 10:01:39;;;;;;;3.10;1.47;;;;;;;6.36;88.24;100484.38;5047410;28;20452;-54
2021/03/09 10:04:07;;;;;;;0.30;0.20;;;;;;;6.42;87.68;100481.66;5021534;28;20441;-54
2021/03/09 10:06:46;;;;;;;0.30;0.10;;;;;;;6.79;87.83;100483.06;5041971;28;20466;-53
2021/03/09 10:09:24;;;;;;;0.30;0.10;;;;;;;6.63;87.24;100483.25;5040323;28;20460;-54
2021/03/09 10:11:55;;;;;;;0.30;0.20;;;;;;;7.05;85.35;100482.81;5042606;28;20494;-54
2021/03/09 10:14:23;;;;;;;0.30;0.20;;;;;;;6.82;83.68;100484.81;5047050;28;20444;-54
2021/03/09 10:16:52;;;;;;;0.30;0.20;;;;;;;7.09;80.84;100476.59;5045919;28;20830;-54
2021/03/09 10:19:21;;;;;;;0.30;0.20;;;;;;;7.47;79.65;100477.91;5040447;28;20451;-54
2021/03/09 10:21:54;;;;;;;0.30;0.20;;;;;;;7.32;79.23;100476.31;5040752;28;20448;-54
2021/03/09 10:24:31;;;;;;;0.30;0.20;;;;;;;7.68;76.26;100476.75;5030888;28;20442;-54
2021/03/09 10:26:59;;;;;;;0.30;0.10;;;;;;;7.87;73.76;100482.66;5039924;28;20472;-54
2021/03/09 10:29:28;;;;;;;0.30;0.10;;;;;;;7.73;73.19;100473.13;5044826;28;20874;-54
2021/03/09 10:32:02;;;;;;;0.30;0.10;;;;;;;7.53;73.85;100479.56;5046900;28;21043;-54
2021/03/09 10:34:49;;;;;;;0.30;0.10;;;;;;;7.33;75.05;100475.41;5044188;28;20448;-53
2021/03/09 10:37:16;;;;;;;0.30;0.13;;;;;;;7.74;74.54;100468.72;5039784;28;20529;-54
2021/03/09 10:39:57;;;;;;;0.30;0.20;;;;;;;7.81;72.50;100467.75;5040254;28;20456;-54
2021/03/09 10:42:25;;;;;;;0.30;0.20;;;;;;;8.28;72.76;100468.78;5031196;28;20476;-54
2021/03/09 10:44:51;;;;;;;0.30;0.20;;;;;;;8.22;71.96;100463.56;5039705;28;20456;-54
2021/03/09 10:47:17;;;;;;;0.30;0.20;;;;;;;8.65;71.69;100462.88;5044390;28;20475;-54
2021/03/09 10:49:44;;;;;;;0.30;0.20;;;;;;;8.73;70.02;100450.34;5046531;28;20541;-54
2021/03/09 10:52:10;;;;;;;0.30;0.20;;;;;;;8.53;68.36;100454.25;5042041;28;20497;-54
2021/03/09 10:54:37;;;;;;;0.30;0.20;;;;;;;8.49;68.49;100452.53;5037519;28;20479;-54
2021/03/09 10:57:22;;;;;;;0.30;0.20;;;;;;;8.58;70.43;100455.03;5045224;28;20463;-54
2021/03/09 10:59:49;;;;;;;0.30;0.20;;;;;;;8.67;69.50;100453.13;5039570;28;20482;-54
2021/03/09 11:02:15;;;;;;;0.30;0.20;;;;;;;8.56;69.03;100448.00;5052915;28;20512;-54
2021/03/09 11:04:42;;;;;;;0.30;0.13;;;;;;;8.56;70.31;100454.19;5039493;28;20479;-54
2021/03/09 11:07:09;;;;;;;0.30;0.10;;;;;;;8.40;70.80;100457.13;5040738;28;20467;-54
2021/03/09 11:09:35;;;;;;;0.30;0.20;;;;;;;8.59;70.31;100450.59;5045867;28;20459;-54
2021/03/09 11:12:01;;;;;;;0.30;0.20;;;;;;;8.43;70.35;100447.34;5045488;28;20518;-54
2021/03/09 11:14:27;;;;;;;0.30;0.13;;;;;;;8.37;69.69;100447.47;5039524;28;20516;-54
2021/03/09 11:16:53;;;;;;;0.30;0.10;;;;;;;8.56;68.25;100440.06;5039970;28;20997;-54
2021/03/09 11:19:19;;;;;;;0.30;0.17;;;;;;;8.75;68.64;100441.47;5046099;28;20462;-54
2021/03/09 11:21:46;;;;;;;0.30;0.20;;;;;;;8.76;69.01;100440.56;5044708;28;20446;-54
2021/03/09 11:24:12;;;;;;;0.30;0.20;;;;;;;9.03;68.45;100440.94;5039306;28;20454;-54
2021/03/09 11:26:38;;;;;;;0.30;0.20;;;;;;;8.63;69.46;100439.03;5039812;28;20877;-54
2021/03/09 11:29:05;;;;;;;0.30;0.20;;;;;;;8.73;68.81;100435.31;5045899;28;20455;-53
2021/03/09 11:31:31;;;;;;;0.30;0.20;;;;;;;8.74;69.19;100438.84;5045262;28;20549;-53
2021/03/09 11:33:58;;;;;;;0.30;0.20;;;;;;;8.92;68.98;100433.22;5039176;28;20462;-54
2021/03/09 11:36:24;;;;;;;0.30;0.20;;;;;;;8.92;67.54;100429.69;5039770;28;20472;-54
2021/03/09 11:38:51;;;;;;;0.30;0.20;;;;;;;9.03;67.72;100431.19;5045832;28;20451;-54
2021/03/09 11:41:19;;;;;;;0.30;0.13;;;;;;;9.12;68.03;100423.06;5045098;28;20451;-54
2021/03/09 11:43:45;;;;;;;0.30;0.20;;;;;;;8.98;67.23;100435.72;5038740;28;20952;-54
2021/03/09 11:46:12;;;;;;;0.30;0.20;;;;;;;8.93;68.41;100432.31;5038951;28;20552;-54